Time;durP1;ratioP1;P1;durP2;ratioP2;P2;SDS_P1;SDS_P2;PMS_P1;PMS_P2;Temp;Humidity;BMP_temperature;BMP_pressure;BME280_temperature;BME280_humidity;BME280_pressure;Samples;Min_cycle;Max_cycle;Signal;HPM_P1;HPM_P2
2020/12/21 00:02:13;;;;;;;16.92;12.20;;;1.30;93.50;;;;;;5036809;28;20452;-72
2020/12/21 00:04:41;;;;;;;14.90;11.68;;;1.30;93.40;;;;;;5051525;28;20415;-72
2020/12/21 00:07:10;;;;;;;18.70;13.68;;;1.40;93.30;;;;;;5041834;28;20459;-71
2020/12/21 00:09:36;;;;;;;18.13;13.57;;;1.40;93.30;;;;;;5070971;28;20517;-72
2020/12/21 00:12:03;;;;;;;19.63;14.18;;;1.40;93.30;;;;;;5067340;28;20867;-71
2020/12/21 00:14:30;;;;;;;21.02;14.93;;;1.40;93.50;;;;;;5053363;28;20847;-72
2020/12/21 00:16:57;;;;;;;22.35;15.35;;;1.30;93.60;;;;;;5067531;28;20443;-72
2020/12/21 00:19:24;;;;;;;21.63;15.25;;;1.40;93.70;;;;;;5053851;28;20411;-72
2020/12/21 00:21:52;;;;;;;21.95;16.17;;;1.40;93.70;;;;;;5066734;28;20478;-72
2020/12/21 00:24:23;;;;;;;20.48;14.63;;;1.40;93.50;;;;;;5053509;28;20486;-72
2020/12/21 00:26:51;;;;;;;21.10;15.02;;;1.40;93.60;;;;;;5070913;28;20465;-72
2020/12/21 00:29:18;;;;;;;22.35;14.77;;;1.30;93.70;;;;;;5049973;28;20506;-72
2020/12/21 00:31:46;;;;;;;20.60;14.35;;;1.30;93.70;;;;;;5070572;28;20473;-72
2020/12/21 00:34:13;;;;;;;20.98;14.75;;;1.30;93.80;;;;;;5049806;28;20435;-72
2020/12/21 00:36:50;;;;;;;23.40;16.10;;;1.30;93.90;;;;;;5053378;28;20403;-71
2020/12/21 00:39:19;;;;;;;20.70;14.90;;;1.30;93.80;;;;;;5049735;28;20427;-72
2020/12/21 00:41:46;;;;;;;22.40;15.48;;;1.30;93.90;;;;;;5053120;28;20411;-71
2020/12/21 00:44:15;;;;;;;21.48;15.20;;;1.40;93.70;;;;;;5038941;28;20854;-71
2020/12/21 00:46:42;;;;;;;23.48;16.13;;;1.30;93.70;;;;;;5033179;28;20452;-71
2020/12/21 00:49:09;;;;;;;23.65;16.38;;;1.40;93.70;;;;;;5037767;28;20415;-72
2020/12/21 00:51:36;;;;;;;24.13;16.23;;;1.40;93.60;;;;;;5053044;28;20439;-72
2020/12/21 00:54:03;;;;;;;22.88;15.88;;;1.40;93.70;;;;;;5066731;28;20512;-71
2020/12/21 00:56:33;;;;;;;24.38;16.50;;;1.30;93.60;;;;;;5052903;28;20481;-72
2020/12/21 00:59:00;;;;;;;24.38;16.98;;;1.30;93.70;;;;;;5046231;28;20413;-71
2020/12/21 01:01:29;;;;;;;22.13;16.33;;;1.20;93.80;;;;;;5050103;28;20714;-71
2020/12/21 01:03:59;;;;;;;23.23;16.20;;;1.20;93.90;;;;;;5049526;28;20402;-71
2020/12/21 01:06:26;;;;;;;22.60;16.10;;;1.30;93.90;;;;;;5048603;28;20413;-72
2020/12/21 01:08:58;;;;;;;25.30;17.53;;;1.20;93.90;;;;;;5049858;28;20467;-72
2020/12/21 01:11:28;;;;;;;29.13;20.08;;;1.20;94.00;;;;;;5064880;28;20458;-72
2020/12/21 01:13:56;;;;;;;28.55;19.52;;;1.20;94.20;;;;;;5069928;28;20411;-72
2020/12/21 01:16:23;;;;;;;27.65;18.95;;;1.20;94.20;;;;;;5066212;28;20400;-72
2020/12/21 01:18:50;;;;;;;27.83;19.52;;;1.20;94.30;;;;;;5070070;28;20461;-71
2020/12/21 01:21:27;;;;;;;31.52;20.95;;;1.20;94.40;;;;;;5055778;28;20409;-71
2020/12/21 01:23:57;;;;;;;30.92;20.00;;;1.20;94.20;;;;;;5032503;28;20425;-72
2020/12/21 01:26:29;;;;;;;29.20;19.98;;;1.20;94.30;;;;;;5047701;28;20462;-72
2020/12/21 01:28:56;;;;;;;28.23;20.05;;;1.20;94.30;;;;;;5032340;28;20409;-72
2020/12/21 01:31:23;;;;;;;28.17;19.52;;;1.20;94.40;;;;;;5054475;28;20469;-72
2020/12/21 01:34:02;;;;;;;31.02;20.00;;;1.20;94.30;;;;;;5070095;28;20454;-72
2020/12/21 01:36:28;;;;;;;28.42;19.50;;;1.20;94.20;;;;;;5049237;28;20439;-72
2020/12/21 01:38:55;;;;;;;30.17;20.50;;;1.10;94.10;;;;;;5052224;28;20451;-71
2020/12/21 01:41:21;;;;;;;28.85;19.92;;;1.10;94.20;;;;;;5048739;28;20431;-71
2020/12/21 01:43:48;;;;;;;31.45;21.40;;;1.20;94.20;;;;;;5069683;28;20395;-72
2020/12/21 01:46:18;;;;;;;31.90;21.23;;;1.10;93.90;;;;;;5070022;28;20403;-72
2020/12/21 01:48:45;;;;;;;30.50;20.75;;;1.10;94.10;;;;;;5067011;28;20757;-72
2020/12/21 01:51:26;;;;;;;29.08;19.35;;;1.10;94.00;;;;;;5069993;28;20453;-71
2020/12/21 01:53:54;;;;;;;29.48;20.73;;;1.10;93.90;;;;;;5066025;28;20417;-72
2020/12/21 01:56:21;;;;;;;30.63;20.42;;;1.00;93.90;;;;;;5052094;28;20832;-72
2020/12/21 01:58:48;;;;;;;31.85;21.40;;;1.00;94.00;;;;;;5047066;28;20401;-71
2020/12/21 02:01:17;;;;;;;31.00;21.38;;;1.00;94.20;;;;;;5070117;28;20400;-72
2020/12/21 02:03:44;;;;;;;30.73;20.95;;;1.00;94.10;;;;;;5037351;28;20401;-72
2020/12/21 02:06:11;;;;;;;29.98;20.65;;;1.00;94.20;;;;;;5052153;28;20421;-72
2020/12/21 02:08:38;;;;;;;28.35;19.83;;;1.00;94.30;;;;;;5058260;28;20415;-72
2020/12/21 02:11:05;;;;;;;29.25;20.45;;;1.00;94.10;;;;;;5073356;28;20427;-72
2020/12/21 02:13:31;;;;;;;30.52;20.65;;;1.00;94.10;;;;;;5047083;28;20448;-72
2020/12/21 02:16:01;;;;;;;30.85;20.50;;;1.00;94.20;;;;;;5053701;28;20490;-71
2020/12/21 02:18:28;;;;;;;31.37;21.47;;;1.00;94.10;;;;;;5035286;28;20412;-71
2020/12/21 02:20:54;;;;;;;33.00;21.70;;;0.90;94.20;;;;;;5055543;28;20841;-71
2020/12/21 02:23:21;;;;;;;31.58;21.20;;;0.90;94.30;;;;;;5055910;28;20404;-71
2020/12/21 02:25:47;;;;;;;27.53;19.77;;;0.90;94.30;;;;;;5033293;28;20471;-71
2020/12/21 02:28:16;;;;;;;27.92;19.52;;;0.90;94.20;;;;;;5053212;28;20405;-72
2020/12/21 02:30:42;;;;;;;28.23;19.67;;;0.90;94.20;;;;;;5048302;28;20810;-72
2020/12/21 02:33:09;;;;;;;27.92;19.30;;;0.90;94.30;;;;;;5073326;28;20503;-72
2020/12/21 02:35:38;;;;;;;26.75;18.92;;;0.90;94.30;;;;;;5052013;28;20531;-71
2020/12/21 02:38:08;;;;;;;28.57;19.70;;;0.90;94.10;;;;;;5055102;28;20412;-72
2020/12/21 02:40:38;;;;;;;31.88;21.33;;;0.90;94.10;;;;;;5051199;28;20887;-72
2020/12/21 02:43:19;;;;;;;32.53;21.73;;;0.80;94.30;;;;;;5057540;28;20408;-72
2020/12/21 02:45:45;;;;;;;35.90;23.10;;;0.90;94.40;;;;;;5061221;28;20488;-71
2020/12/21 02:48:12;;;;;;;39.33;24.45;;;0.90;94.40;;;;;;5051775;28;21131;-72
2020/12/21 02:50:38;;;;;;;35.70;23.30;;;0.90;94.50;;;;;;5055580;28;20463;-71
2020/12/21 02:53:05;;;;;;;35.27;22.70;;;0.80;94.50;;;;;;5072753;28;20465;-72
2020/12/21 02:55:31;;;;;;;37.47;23.67;;;0.80;94.40;;;;;;5067347;28;20429;-71
2020/12/21 02:57:58;;;;;;;35.72;23.30;;;0.80;94.50;;;;;;5035140;28;20417;-72
2020/12/21 03:00:24;;;;;;;33.08;22.00;;;0.80;94.60;;;;;;5067569;28;20427;-71
2020/12/21 03:02:51;;;;;;;29.25;20.05;;;0.80;94.50;;;;;;5050618;28;20471;-71
2020/12/21 03:05:17;;;;;;;31.83;20.70;;;0.80;94.50;;;;;;5034833;28;20421;-72
2020/12/21 03:07:47;;;;;;;26.10;19.00;;;0.80;94.50;;;;;;5065155;28;20404;-71
2020/12/21 03:10:14;;;;;;;36.70;23.58;;;0.90;94.40;;;;;;5054379;28;20864;-72
2020/12/21 03:12:41;;;;;;;28.33;19.95;;;0.80;94.40;;;;;;5050905;28;20447;-72
2020/12/21 03:15:10;;;;;;;26.08;18.42;;;0.90;94.30;;;;;;5054762;28;20408;-72
2020/12/21 03:17:38;;;;;;;27.15;18.15;;;0.90;94.30;;;;;;5059607;28;20479;-71
2020/12/21 03:20:05;;;;;;;30.58;20.30;;;0.90;94.20;;;;;;5034800;28;20591;-71
2020/12/21 03:22:32;;;;;;;27.13;18.70;;;0.90;94.20;;;;;;5031858;28;20413;-71
2020/12/21 03:25:00;;;;;;;25.27;17.80;;;0.90;94.30;;;;;;5034758;28;20466;-72
2020/12/21 03:27:28;;;;;;;24.27;17.75;;;0.90;94.30;;;;;;5033153;28;21280;-72
2020/12/21 03:29:57;;;;;;;23.80;17.75;;;0.90;94.30;;;;;;5051219;28;20457;-71
2020/12/21 03:32:26;;;;;;;24.95;17.13;;;0.90;94.40;;;;;;5049451;28;20772;-72
2020/12/21 03:34:52;;;;;;;25.00;17.25;;;0.90;94.40;;;;;;5071518;28;20446;-72
2020/12/21 03:37:19;;;;;;;26.67;17.77;;;0.90;94.40;;;;;;5071639;28;20689;-71
2020/12/21 03:39:45;;;;;;;25.77;17.83;;;0.90;94.40;;;;;;5051605;28;20467;-71
2020/12/21 03:42:14;;;;;;;23.23;17.13;;;0.90;94.40;;;;;;5051755;28;20833;-71
2020/12/21 03:44:41;;;;;;;23.95;17.13;;;0.90;94.50;;;;;;5050827;28;20759;-72
2020/12/21 03:47:07;;;;;;;24.02;17.05;;;0.90;94.30;;;;;;5053870;28;20407;-72
2020/12/21 03:49:34;;;;;;;23.73;16.42;;;0.90;94.40;;;;;;5068087;28;20505;-71
2020/12/21 03:52:00;;;;;;;21.65;15.73;;;0.90;94.40;;;;;;5054395;28;20408;-71
2020/12/21 03:54:28;;;;;;;19.93;14.93;;;1.00;94.30;;;;;;5061482;28;20451;-72
2020/12/21 03:56:54;;;;;;;19.05;14.25;;;1.10;94.00;;;;;;5034002;28;20409;-71
2020/12/21 03:59:21;;;;;;;19.50;14.50;;;1.10;93.90;;;;;;5051320;28;20487;-72
2020/12/21 04:01:49;;;;;;;17.77;13.57;;;1.00;94.00;;;;;;5050636;28;20409;-72
2020/12/21 04:04:16;;;;;;;20.83;14.52;;;1.10;93.90;;;;;;5048083;28;20850;-72
2020/12/21 04:06:42;;;;;;;19.60;13.70;;;1.10;93.80;;;;;;5071162;28;20403;-72
2020/12/21 04:09:11;;;;;;;19.27;14.30;;;1.10;94.00;;;;;;5071111;28;20453;-72
2020/12/21 04:11:37;;;;;;;17.25;13.10;;;1.10;93.90;;;;;;5067914;28;20412;-72
2020/12/21 04:14:04;;;;;;;17.67;13.30;;;1.10;93.70;;;;;;5053485;28;20737;-71
2020/12/21 04:16:33;;;;;;;19.20;13.80;;;1.10;93.80;;;;;;5067413;28;20775;-72
2020/12/21 04:18:59;;;;;;;18.20;13.68;;;1.10;93.80;;;;;;5071168;28;20947;-72
2020/12/21 04:21:28;;;;;;;18.50;13.52;;;1.10;93.90;;;;;;5050138;28;20505;-72
2020/12/21 04:23:54;;;;;;;17.50;13.20;;;1.10;93.80;;;;;;5053366;28;20400;-71
2020/12/21 04:26:20;;;;;;;16.73;13.20;;;1.10;93.70;;;;;;5067628;28;20499;-71
2020/12/21 04:28:49;;;;;;;17.45;13.43;;;1.10;93.70;;;;;;5070457;28;20486;-71
2020/12/21 04:31:18;;;;;;;15.63;12.40;;;1.10;94.00;;;;;;5045481;28;20875;-72
2020/12/21 04:33:45;;;;;;;17.23;13.07;;;1.10;93.70;;;;;;5051071;28;20397;-71
2020/12/21 04:36:12;;;;;;;15.90;12.37;;;1.10;93.70;;;;;;5032443;28;20416;-72
2020/12/21 04:38:41;;;;;;;16.33;12.00;;;1.10;93.80;;;;;;5070850;28;20403;-71
2020/12/21 04:41:09;;;;;;;16.70;12.20;;;1.10;93.60;;;;;;5052758;28;20473;-71
2020/12/21 04:43:37;;;;;;;17.75;12.15;;;1.10;93.70;;;;;;5049131;28;20788;-72
2020/12/21 04:46:06;;;;;;;18.23;12.40;;;1.10;93.70;;;;;;5053042;28;20721;-72
2020/12/21 04:48:38;;;;;;;15.15;11.32;;;1.10;93.60;;;;;;5066979;28;20403;-72
2020/12/21 04:51:06;;;;;;;15.57;11.93;;;1.10;93.70;;;;;;5070179;28;20477;-71
2020/12/21 04:53:35;;;;;;;16.00;11.30;;;1.10;93.80;;;;;;5066860;28;20773;-71
2020/12/21 04:56:01;;;;;;;18.00;12.02;;;1.10;93.80;;;;;;5070548;28;20468;-71
2020/12/21 04:58:28;;;;;;;15.60;11.90;;;1.10;93.60;;;;;;5066746;28;20760;-72
2020/12/21 05:00:55;;;;;;;16.80;12.30;;;1.10;93.60;;;;;;5070308;28;20646;-71
2020/12/21 05:03:21;;;;;;;16.73;12.07;;;1.10;93.70;;;;;;5066808;28;20447;-72
2020/12/21 05:05:47;;;;;;;15.68;12.25;;;1.00;93.70;;;;;;5069948;28;20862;-71
2020/12/21 05:08:24;;;;;;;16.77;12.15;;;1.10;93.80;;;;;;5067068;28;20510;-71
2020/12/21 05:11:02;;;;;;;16.52;12.35;;;1.00;93.80;;;;;;5051561;28;20443;-72
2020/12/21 05:13:32;;;;;;;17.20;11.95;;;1.00;93.80;;;;;;5045277;28;20432;-72
2020/12/21 05:15:59;;;;;;;16.33;12.20;;;1.00;93.90;;;;;;5033138;28;20405;-72
2020/12/21 05:18:30;;;;;;;15.87;12.07;;;1.00;93.90;;;;;;5047522;28;20816;-72
2020/12/21 05:21:07;;;;;;;17.15;11.85;;;1.00;93.90;;;;;;5012984;28;20442;-71
2020/12/21 05:23:37;;;;;;;16.33;11.95;;;1.00;93.80;;;;;;5012911;28;20419;-72
2020/12/21 05:26:09;;;;;;;16.05;12.15;;;1.00;93.80;;;;;;5047512;28;20416;-71
2020/12/21 05:28:42;;;;;;;16.90;12.80;;;1.00;93.80;;;;;;5028259;28;20786;-72
2020/12/21 05:31:10;;;;;;;19.75;13.05;;;1.00;93.80;;;;;;5028116;28;20885;-72
2020/12/21 05:33:44;;;;;;;20.63;12.95;;;1.00;93.90;;;;;;5050358;28;20413;-71
2020/12/21 05:36:14;;;;;;;19.20;13.73;;;1.00;94.00;;;;;;5046961;28;20405;-72
2020/12/21 05:38:42;;;;;;;19.95;13.50;;;1.00;94.00;;;;;;5049978;28;20416;-71
2020/12/21 05:41:17;;;;;;;17.92;13.05;;;1.00;94.10;;;;;;5031907;28;20776;-71
2020/12/21 05:43:45;;;;;;;18.38;12.95;;;1.00;94.10;;;;;;5054266;28;20402;-72
2020/12/21 05:46:16;;;;;;;18.47;14.07;;;0.90;94.10;;;;;;5059678;28;20863;-71
2020/12/21 05:48:55;;;;;;;31.33;20.93;;;1.00;94.20;;;;;;5056364;28;21048;-72
2020/12/21 05:51:34;;;;;;;29.00;20.23;;;0.90;94.20;;;;;;5059779;28;20429;-72
2020/12/21 05:54:02;;;;;;;25.52;19.23;;;0.90;94.20;;;;;;5036502;28;20447;-71
2020/12/21 05:56:31;;;;;;;26.17;19.40;;;0.90;94.20;;;;;;5050329;28;20733;-71
2020/12/21 05:58:59;;;;;;;24.23;18.80;;;0.90;94.30;;;;;;5035832;28;20412;-71
2020/12/21 06:01:26;;;;;;;21.77;16.95;;;0.90;94.30;;;;;;5054994;28;20415;-72
2020/12/21 06:04:00;;;;;;;21.92;16.05;;;0.90;94.30;;;;;;5056018;28;20775;-72
2020/12/21 06:06:29;;;;;;;20.20;15.57;;;0.90;94.30;;;;;;5023429;28;21064;-72
2020/12/21 06:09:00;;;;;;;17.70;13.70;;;0.90;94.40;;;;;;5036164;28;20405;-71
2020/12/21 06:11:35;;;;;;;18.73;14.20;;;0.90;94.50;;;;;;5049643;28;20535;-72
2020/12/21 06:14:10;;;;;;;19.42;14.43;;;0.90;94.50;;;;;;5074592;28;20809;-72
2020/12/21 06:16:40;;;;;;;19.90;14.80;;;0.90;94.50;;;;;;5074704;28;20479;-72
2020/12/21 06:19:23;;;;;;;21.55;15.07;;;0.90;94.60;;;;;;5061016;28;20448;-71
2020/12/21 06:21:53;;;;;;;22.42;14.77;;;0.90;94.60;;;;;;5054810;28;20476;-72
2020/12/21 06:24:21;;;;;;;19.63;14.75;;;0.90;94.70;;;;;;5067587;28;20419;-72
2020/12/21 06:26:49;;;;;;;20.88;14.75;;;0.90;94.70;;;;;;5054773;28;20464;-71
2020/12/21 06:29:16;;;;;;;20.40;14.38;;;0.90;94.80;;;;;;5067850;28;20442;-71
2020/12/21 06:31:48;;;;;;;19.73;15.15;;;0.90;94.90;;;;;;5054775;28;20400;-72
2020/12/21 06:34:17;;;;;;;20.23;14.70;;;0.90;94.80;;;;;;5055282;28;20908;-71
2020/12/21 06:36:48;;;;;;;20.63;15.02;;;0.90;94.80;;;;;;5051390;28;20458;-71
2020/12/21 06:39:24;;;;;;;20.80;14.80;;;0.90;94.90;;;;;;5060823;28;20852;-72
2020/12/21 06:42:09;;;;;;;19.15;14.30;;;0.90;94.90;;;;;;5071636;28;20399;-71
2020/12/21 06:44:39;;;;;;;18.63;13.88;;;0.90;94.90;;;;;;5068099;28;20403;-72
2020/12/21 06:47:07;;;;;;;19.45;14.50;;;1.00;94.80;;;;;;5072600;28;20461;-71
2020/12/21 06:49:36;;;;;;;18.77;13.98;;;1.00;94.80;;;;;;5068039;28;20882;-71
2020/12/21 06:52:04;;;;;;;22.00;14.33;;;1.00;94.80;;;;;;5070781;28;20860;-72
2020/12/21 06:54:33;;;;;;;18.23;13.80;;;1.00;95.00;;;;;;5068032;28;20740;-72
2020/12/21 06:56:59;;;;;;;18.73;13.45;;;1.00;95.00;;;;;;5071996;28;20427;-72
2020/12/21 06:59:27;;;;;;;18.60;13.38;;;1.00;94.80;;;;;;5050118;28;20461;-72
2020/12/21 07:01:55;;;;;;;15.60;12.13;;;1.10;94.80;;;;;;5054177;28;20457;-71
2020/12/21 07:04:27;;;;;;;17.17;12.45;;;1.10;94.60;;;;;;5050567;28;20407;-72
2020/12/21 07:06:55;;;;;;;15.60;11.70;;;1.10;94.50;;;;;;5071429;28;20462;-72
2020/12/21 07:09:24;;;;;;;17.53;12.93;;;1.10;94.50;;;;;;5071979;28;20443;-72
2020/12/21 07:12:05;;;;;;;17.20;12.67;;;1.10;94.50;;;;;;4985904;28;1351290;-71
2020/12/21 07:14:36;;;;;;;15.32;11.82;;;1.10;94.50;;;;;;5034526;28;20817;-72
2020/12/21 07:17:03;;;;;;;16.65;12.20;;;1.10;94.50;;;;;;5049502;28;20848;-72
2020/12/21 07:19:31;;;;;;;18.77;12.98;;;1.10;94.50;;;;;;5055005;28;20427;-72
2020/12/21 07:21:58;;;;;;;17.65;13.38;;;1.10;94.50;;;;;;5068580;28;20772;-72
2020/12/21 07:24:24;;;;;;;17.38;13.27;;;1.10;94.60;;;;;;5054997;28;20493;-72
2020/12/21 07:26:54;;;;;;;25.10;13.75;;;1.10;94.40;;;;;;5067993;28;20489;-71
2020/12/21 07:29:21;;;;;;;23.60;16.33;;;1.10;94.50;;;;;;5054344;28;20462;-71
2020/12/21 07:31:48;;;;;;;20.30;14.07;;;1.20;94.50;;;;;;5060436;28;20440;-72
2020/12/21 07:34:15;;;;;;;19.92;13.85;;;1.20;94.40;;;;;;5052147;28;20857;-72
2020/12/21 07:36:42;;;;;;;20.73;15.00;;;1.20;94.40;;;;;;5046580;28;20878;-71
2020/12/21 07:39:10;;;;;;;19.15;14.00;;;1.20;94.30;;;;;;5052277;28;20426;-71
2020/12/21 07:41:44;;;;;;;21.47;14.90;;;1.20;94.30;;;;;;5033668;28;20455;-71
2020/12/21 07:44:14;;;;;;;74.60;34.78;;;1.30;94.40;;;;;;5053581;28;20407;-72
2020/12/21 07:46:52;;;;;;;48.30;24.70;;;1.30;94.40;;;;;;5069946;28;20395;-72
2020/12/21 07:49:18;;;;;;;29.15;18.38;;;1.30;94.30;;;;;;5040500;28;20427;-71
2020/12/21 07:51:46;;;;;;;30.60;17.55;;;1.40;94.30;;;;;;5054332;28;20403;-72
2020/12/21 07:54:15;;;;;;;29.65;18.65;;;1.40;94.20;;;;;;5050220;28;21327;-72
2020/12/21 07:56:44;;;;;;;28.30;17.67;;;1.40;94.20;;;;;;5070097;28;20423;-72
2020/12/21 07:59:18;;;;;;;28.13;16.80;;;1.50;94.10;;;;;;5044285;28;20398;-72
2020/12/21 08:01:46;;;;;;;25.38;15.85;;;1.50;94.10;;;;;;5033576;28;20860;-72
2020/12/21 08:04:21;;;;;;;23.35;15.82;;;1.60;94.00;;;;;;5059724;28;20488;-72
2020/12/21 08:06:49;;;;;;;23.20;15.15;;;1.60;93.90;;;;;;5071183;28;20493;-72
2020/12/21 08:09:16;;;;;;;22.50;15.02;;;1.80;93.30;;;;;;5038726;28;20453;-72
2020/12/21 08:11:43;;;;;;;23.83;15.20;;;1.70;93.30;;;;;;5033651;28;20425;-72
2020/12/21 08:14:17;;;;;;;21.92;14.50;;;1.70;93.50;;;;;;5038145;28;20482;-72
2020/12/21 08:16:49;;;;;;;23.45;14.45;;;1.80;93.50;;;;;;5053757;28;20512;-72
2020/12/21 08:19:20;;;;;;;20.88;13.65;;;1.90;93.50;;;;;;5067371;28;20856;-72
2020/12/21 08:21:50;;;;;;;20.08;13.32;;;1.90;93.40;;;;;;5052722;28;20423;-72
2020/12/21 08:24:17;;;;;;;28.83;17.30;;;2.00;92.90;;;;;;5067922;28;20411;-72
2020/12/21 08:26:45;;;;;;;24.00;14.60;;;2.00;92.90;;;;;;5053295;28;20710;-72
2020/12/21 08:29:19;;;;;;;20.27;14.43;;;2.10;92.90;;;;;;5066876;28;20488;-73
2020/12/21 08:31:47;;;;;;;20.50;13.75;;;2.10;92.90;;;;;;5036890;28;20427;-72
2020/12/21 08:34:15;;;;;;;22.88;14.43;;;2.20;92.60;;;;;;5053514;28;20709;-72
2020/12/21 08:36:45;;;;;;;24.20;16.52;;;2.40;92.40;;;;;;5067145;28;20777;-72
2020/12/21 08:39:18;;;;;;;20.80;12.75;;;2.60;92.20;;;;;;5053369;28;20396;-72
2020/12/21 08:41:52;;;;;;;23.02;13.07;;;2.70;91.60;;;;;;5049351;28;20424;-72
2020/12/21 08:44:30;;;;;;;21.98;14.43;;;2.80;91.70;;;;;;5070895;28;20439;-72
2020/12/21 08:46:58;;;;;;;20.65;14.48;;;2.80;91.10;;;;;;5067114;28;20439;-72
2020/12/21 08:49:26;;;;;;;24.38;16.88;;;2.80;91.30;;;;;;5070568;28;20408;-72
2020/12/21 08:51:59;;;;;;;25.75;17.23;;;2.90;91.40;;;;;;5049096;28;20484;-73
2020/12/21 08:54:25;;;;;;;24.90;17.85;;;2.90;90.90;;;;;;5070942;28;20402;-72
2020/12/21 08:56:57;;;;;;;26.98;18.55;;;2.90;91.00;;;;;;5048788;28;20437;-72
2020/12/21 08:59:23;;;;;;;29.10;20.80;;;2.80;91.00;;;;;;5063648;28;20494;-72
2020/12/21 09:01:52;;;;;;;28.77;20.23;;;2.80;91.20;;;;;;5055154;28;20404;-72
2020/12/21 09:04:21;;;;;;;27.80;20.23;;;2.90;91.20;;;;;;5070689;28;20426;-73
2020/12/21 09:06:50;;;;;;;26.70;20.15;;;2.90;91.30;;;;;;5066397;28;20423;-72
2020/12/21 09:09:16;;;;;;;26.40;19.70;;;2.90;91.50;;;;;;5053275;28;20461;-72
2020/12/21 09:11:56;;;;;;;26.83;19.40;;;2.90;91.30;;;;;;5051210;28;20732;-73
2020/12/21 09:14:25;;;;;;;24.85;18.52;;;2.90;91.20;;;;;;5070472;28;20464;-72
2020/12/21 09:16:52;;;;;;;25.30;16.60;;;3.00;91.10;;;;;;5049189;28;20443;-72
2020/12/21 09:19:19;;;;;;;21.13;15.27;;;3.10;90.70;;;;;;5070192;28;20791;-73
2020/12/21 09:21:45;;;;;;;21.23;14.40;;;3.30;90.50;;;;;;5051824;28;20513;-72
2020/12/21 09:24:12;;;;;;;18.55;13.30;;;3.40;90.20;;;;;;5031913;28;20911;-72
2020/12/21 09:26:39;;;;;;;17.42;12.68;;;3.60;89.50;;;;;;5033177;28;20452;-72
2020/12/21 09:29:08;;;;;;;21.20;13.07;;;3.90;88.30;;;;;;5039951;28;20812;-72
2020/12/21 09:31:34;;;;;;;18.40;12.87;;;4.60;85.10;;;;;;5050083;28;20422;-72
2020/12/21 09:34:01;;;;;;;17.70;12.57;;;5.30;82.00;;;;;;5047698;28;20486;-73
2020/12/21 09:36:29;;;;;;;18.10;13.68;;;5.80;79.90;;;;;;5070358;28;20407;-73
2020/12/21 09:39:10;;;;;;;18.83;13.77;;;6.30;77.80;;;;;;5040830;28;20876;-73
2020/12/21 09:41:36;;;;;;;27.77;18.88;;;6.90;75.50;;;;;;5032810;28;20430;-73
2020/12/21 09:44:05;;;;;;;26.65;18.70;;;7.40;73.30;;;;;;5032109;28;20602;-73
2020/12/21 09:46:32;;;;;;;22.30;16.02;;;7.70;71.50;;;;;;5050067;28;20409;-73
2020/12/21 09:49:03;;;;;;;19.70;14.30;;;8.00;70.90;;;;;;5048729;28;20921;-73
2020/12/21 09:51:30;;;;;;;18.63;14.05;;;8.30;70.00;;;;;;5069979;28;20434;-73
2020/12/21 09:53:57;;;;;;;18.48;13.65;;;8.40;69.20;;;;;;5067155;28;20556;-73
2020/12/21 09:56:23;;;;;;;16.63;12.77;;;8.60;68.40;;;;;;5041733;28;20869;-73
2020/12/21 09:58:51;;;;;;;17.38;12.98;;;8.70;66.60;;;;;;5064086;28;20419;-73
2020/12/21 10:01:18;;;;;;;19.17;14.27;;;8.90;68.00;;;;;;5047820;28;20562;-73
2020/12/21 10:03:44;;;;;;;18.40;13.35;;;9.10;65.50;;;;;;5046839;28;20413;-73
2020/12/21 10:06:14;;;;;;;17.27;12.70;;;9.40;65.70;;;;;;5045953;28;20463;-73
2020/12/21 10:08:41;;;;;;;18.67;13.35;;;9.80;63.20;;;;;;5048219;28;20402;-73
2020/12/21 10:11:08;;;;;;;16.45;12.60;;;10.10;61.80;;;;;;5056502;28;20488;-73
2020/12/21 10:13:37;;;;;;;15.60;12.20;;;10.10;62.50;;;;;;5050027;28;20422;-73
2020/12/21 10:16:04;;;;;;;16.52;13.23;;;10.30;61.90;;;;;;5044180;28;20857;-73
2020/12/21 10:18:35;;;;;;;17.70;14.05;;;10.60;61.60;;;;;;5050007;28;20471;-74
2020/12/21 10:21:05;;;;;;;17.20;13.40;;;10.80;61.00;;;;;;5046697;28;20421;-74
2020/12/21 10:23:31;;;;;;;18.58;12.90;;;11.10;59.40;;;;;;5049461;28;20409;-74
2020/12/21 10:26:02;;;;;;;17.65;12.52;;;11.20;59.60;;;;;;5050411;28;21721;-73
2020/12/21 10:28:33;;;;;;;16.83;13.25;;;11.50;58.80;;;;;;5073286;28;20420;-73
2020/12/21 10:31:01;;;;;;;19.33;13.73;;;11.80;58.00;;;;;;5052646;28;20433;-74
2020/12/21 10:33:31;;;;;;;16.30;12.60;;;12.00;57.80;;;;;;5036165;28;20437;-74
2020/12/21 10:35:58;;;;;;;15.57;11.50;;;12.30;57.00;;;;;;5035279;28;20912;-74
2020/12/21 10:38:24;;;;;;;14.10;11.13;;;13.10;52.70;;;;;;5032743;28;20460;-74
2020/12/21 10:40:50;;;;;;;14.45;11.40;;;13.00;54.40;;;;;;5035208;28;20790;-73
2020/12/21 10:43:17;;;;;;;15.68;11.02;;;13.00;54.10;;;;;;5063757;28;20415;-74
2020/12/21 10:45:43;;;;;;;15.80;11.80;;;13.10;54.60;;;;;;5055486;28;20439;-74
2020/12/21 10:48:10;;;;;;;14.52;11.38;;;13.00;51.80;;;;;;5051492;28;20968;-74
2020/12/21 10:50:37;;;;;;;15.45;10.85;;;12.70;53.00;;;;;;5067913;28;20548;-73
2020/12/21 10:53:03;;;;;;;13.83;11.30;;;13.10;53.10;;;;;;5038654;28;20408;-74
2020/12/21 10:55:31;;;;;;;14.98;10.70;;;13.70;51.00;;;;;;5071913;28;21186;-74
2020/12/21 10:57:58;;;;;;;15.05;11.68;;;13.70;49.60;;;;;;5050981;28;20408;-74
2020/12/21 11:00:24;;;;;;;15.23;11.23;;;13.80;50.80;;;;;;5047613;28;20473;-74
2020/12/21 11:02:51;;;;;;;16.03;11.80;;;13.90;50.50;;;;;;5069892;28;20410;-74
2020/12/21 11:05:17;;;;;;;16.42;11.48;;;14.10;49.90;;;;;;5051254;28;20437;-74
2020/12/21 11:07:47;;;;;;;13.77;11.18;;;14.30;49.70;;;;;;5035296;28;20482;-74
2020/12/21 11:10:30;;;;;;;15.57;11.00;;;14.60;48.50;;;;;;5068485;28;20501;-74
2020/12/21 11:12:59;;;;;;;17.70;11.65;;;15.00;47.40;;;;;;5072462;28;20482;-73
2020/12/21 11:15:28;;;;;;;15.37;10.93;;;15.40;47.00;;;;;;5041475;28;20871;-74
2020/12/21 11:17:54;;;;;;;14.85;11.20;;;15.60;46.40;;;;;;5072064;28;20779;-74
2020/12/21 11:20:21;;;;;;;15.90;11.00;;;15.50;47.40;;;;;;5068510;28;20408;-74
2020/12/21 11:22:47;;;;;;;13.40;10.30;;;15.40;46.80;;;;;;5072287;28;20783;-74
2020/12/21 11:25:14;;;;;;;12.80;10.43;;;15.30;47.50;;;;;;5041681;28;20421;-74
2020/12/21 11:27:43;;;;;;;12.80;10.70;;;15.00;47.30;;;;;;5061080;28;20411;-74
2020/12/21 11:30:10;;;;;;;15.38;10.38;;;15.20;47.30;;;;;;5051565;28;20423;-74
2020/12/21 11:32:37;;;;;;;15.88;10.60;;;15.40;47.00;;;;;;5072300;28;20403;-74
2020/12/21 11:35:05;;;;;;;12.43;10.63;;;15.50;46.90;;;;;;5051088;28;20418;-74
2020/12/21 11:37:34;;;;;;;13.52;10.80;;;15.50;45.80;;;;;;5071251;28;20407;-74
2020/12/21 11:40:01;;;;;;;16.13;11.63;;;15.00;46.80;;;;;;5050112;28;20395;-74
2020/12/21 11:42:28;;;;;;;17.23;11.63;;;14.20;48.10;;;;;;5072946;28;20477;-74
2020/12/21 11:44:55;;;;;;;17.77;12.32;;;13.50;51.00;;;;;;5071746;28;20649;-74
2020/12/21 11:47:23;;;;;;;16.60;12.30;;;13.10;52.90;;;;;;5050012;28;20904;-73
2020/12/21 11:49:54;;;;;;;21.35;12.70;;;12.80;54.20;;;;;;5053933;28;20557;-73
2020/12/21 11:52:20;;;;;;;18.27;12.60;;;12.70;54.40;;;;;;5050873;28;20411;-74
2020/12/21 11:54:47;;;;;;;18.40;12.07;;;12.70;54.60;;;;;;5071678;28;20465;-73
2020/12/21 11:57:16;;;;;;;15.00;11.52;;;12.90;54.40;;;;;;5067191;28;20411;-74
2020/12/21 11:59:42;;;;;;;20.02;14.00;;;13.20;55.00;;;;;;5044336;28;20467;-74
2020/12/21 12:02:08;;;;;;;17.93;13.97;;;13.40;53.80;;;;;;5036319;28;20420;-74
2020/12/21 12:04:35;;;;;;;18.35;14.32;;;13.90;53.60;;;;;;5051072;28;20413;-74
2020/12/21 12:07:07;;;;;;;24.00;15.02;;;14.00;51.60;;;;;;5054133;28;20424;-74
2020/12/21 12:09:34;;;;;;;21.15;15.25;;;13.80;52.10;;;;;;5071240;28;20415;-74
2020/12/21 12:12:00;;;;;;;21.80;15.60;;;13.60;53.10;;;;;;5067624;28;20431;-74
2020/12/21 12:14:29;;;;;;;22.27;16.00;;;13.40;53.70;;;;;;5053844;28;20408;-74
2020/12/21 12:16:58;;;;;;;22.75;16.25;;;13.10;54.20;;;;;;5071324;28;20407;-74
2020/12/21 12:19:30;;;;;;;22.40;15.85;;;13.00;55.10;;;;;;5068082;28;21051;-73
2020/12/21 12:21:57;;;;;;;23.10;16.33;;;12.90;55.70;;;;;;5069741;28;20415;-74
2020/12/21 12:24:25;;;;;;;24.70;17.52;;;12.60;56.40;;;;;;5067212;28;20403;-73
2020/12/21 12:26:53;;;;;;;26.07;16.80;;;12.30;57.30;;;;;;5070411;28;20477;-74
2020/12/21 12:29:20;;;;;;;27.35;17.20;;;12.30;58.40;;;;;;5036244;28;20774;-73
2020/12/21 12:31:47;;;;;;;25.98;18.27;;;12.50;57.50;;;;;;5050938;28;20437;-73
2020/12/21 12:34:13;;;;;;;28.50;19.25;;;12.40;57.20;;;;;;5048165;28;20419;-74
2020/12/21 12:36:43;;;;;;;26.97;18.50;;;12.00;58.80;;;;;;5053087;28;20896;-74
2020/12/21 12:39:10;;;;;;;26.43;18.63;;;11.70;60.10;;;;;;5046469;28;20420;-74
2020/12/21 12:41:44;;;;;;;31.60;20.67;;;11.40;60.90;;;;;;5050681;28;20421;-74
2020/12/21 12:44:13;;;;;;;36.03;20.77;;;11.20;61.60;;;;;;5053845;28;20419;-74